sensor_id;sensor_type;location;lat;lon;timestamp;pressure;altitude;pressure_sealevel;temperature;humidity
21826;BME280;11075;47.944;11.776;2022-10-29T00:00:54;95557.72;;;18.20;25.13
21826;BME280;11075;47.944;11.776;2022-10-29T00:03:23;95583.50;;;19.05;24.29
21826;BME280;11075;47.944;11.776;2022-10-29T00:06:01;95569.56;;;18.80;24.15
21826;BME280;11075;47.944;11.776;2022-10-29T00:08:30;95497.84;;;15.69;28.32
21826;BME280;11075;47.944;11.776;2022-10-29T00:13:35;95559.13;;;17.64;25.66
21826;BME280;11075;47.944;11.776;2022-10-29T00:16:10;95564.16;;;18.08;24.73
21826;BME280;11075;47.944;11.776;2022-10-29T00:18:38;95529.75;;;16.73;26.59
21826;BME280;11075;47.944;11.776;2022-10-29T00:21:10;95496.47;;;15.15;28.76
21826;BME280;11075;47.944;11.776;2022-10-29T00:23:37;95551.19;;;17.75;25.34
21826;BME280;11075;47.944;11.776;2022-10-29T00:26:04;95558.94;;;17.54;25.44
21826;BME280;11075;47.944;11.776;2022-10-29T00:28:31;95525.28;;;16.11;26.91
21826;BME280;11075;47.944;11.776;2022-10-29T00:31:06;95499.28;;;14.63;28.96
21826;BME280;11075;47.944;11.776;2022-10-29T00:33:33;95501.88;;;15.43;28.42
21826;BME280;11075;47.944;11.776;2022-10-29T00:38:30;95543.13;;;17.40;25.17
21826;BME280;11075;47.944;11.776;2022-10-29T00:40:57;95571.09;;;17.79;24.52
21826;BME280;11075;47.944;11.776;2022-10-29T00:43:25;95549.97;;;16.72;26.24
21826;BME280;11075;47.944;11.776;2022-10-29T00:45:56;95527.38;;;15.54;27.69
21826;BME280;11075;47.944;11.776;2022-10-29T00:48:27;95539.22;;;16.60;26.46
21826;BME280;11075;47.944;11.776;2022-10-29T00:50:57;95549.47;;;17.25;25.85
21826;BME280;11075;47.944;11.776;2022-10-29T00:53:26;95562.13;;;17.78;24.87
21826;BME280;11075;47.944;11.776;2022-10-29T00:55:54;95567.66;;;17.82;24.42
21826;BME280;11075;47.944;11.776;2022-10-29T00:58:21;95525.91;;;15.57;27.41
21826;BME280;11075;47.944;11.776;2022-10-29T01:00:48;95535.91;;;16.35;26.66
21826;BME280;11075;47.944;11.776;2022-10-29T01:03:15;95494.94;;;14.46;29.07
21826;BME280;11075;47.944;11.776;2022-10-29T01:05:43;95516.59;;;15.42;27.84
21826;BME280;11075;47.944;11.776;2022-10-29T01:08:11;95531.00;;;16.41;26.22
21826;BME280;11075;47.944;11.776;2022-10-29T01:16:29;95562.84;;;17.33;24.74
21826;BME280;11075;47.944;11.776;2022-10-29T01:19:27;95559.66;;;17.51;24.75
21826;BME280;11075;47.944;11.776;2022-10-29T01:31:16;95533.66;;;16.21;26.48
21826;BME280;11075;47.944;11.776;2022-10-29T01:39:32;95538.84;;;16.62;26.05
21826;BME280;11075;47.944;11.776;2022-10-29T01:47:48;95497.91;;;15.25;27.34
21826;BME280;11075;47.944;11.776;2022-10-29T01:50:18;95531.31;;;16.20;25.89
21826;BME280;11075;47.944;11.776;2022-10-29T01:52:48;95550.88;;;16.80;25.54
21826;BME280;11075;47.944;11.776;2022-10-29T01:55:21;95545.00;;;16.08;26.29
21826;BME280;11075;47.944;11.776;2022-10-29T01:57:48;95550.94;;;16.64;25.78
21826;BME280;11075;47.944;11.776;2022-10-29T02:00:17;95533.41;;;15.95;26.24
21826;BME280;11075;47.944;11.776;2022-10-29T02:02:53;95556.25;;;16.96;24.80
21826;BME280;11075;47.944;11.776;2022-10-29T02:08:19;95573.69;;;17.30;24.43
21826;BME280;11075;47.944;11.776;2022-10-29T02:10:55;95556.75;;;16.47;25.03
21826;BME280;11075;47.944;11.776;2022-10-29T02:13:38;95480.22;;;12.68;30.19
21826;BME280;11075;47.944;11.776;2022-10-29T02:16:07;95454.34;;;13.24;30.78
21826;BME280;11075;47.944;11.776;2022-10-29T02:18:45;95486.53;;;13.99;28.76
21826;BME280;11075;47.944;11.776;2022-10-29T02:21:17;95513.31;;;15.37;26.94
21826;BME280;11075;47.944;11.776;2022-10-29T02:23:44;95543.94;;;16.82;24.75
21826;BME280;11075;47.944;11.776;2022-10-29T02:26:11;95549.38;;;16.82;24.98
21826;BME280;11075;47.944;11.776;2022-10-29T02:28:40;95558.28;;;16.99;24.69
21826;BME280;11075;47.944;11.776;2022-10-29T02:31:06;95521.78;;;15.63;26.45
21826;BME280;11075;47.944;11.776;2022-10-29T02:33:33;95524.03;;;15.93;26.15
21826;BME280;11075;47.944;11.776;2022-10-29T02:36:00;95519.22;;;15.70;26.76
21826;BME280;11075;47.944;11.776;2022-10-29T02:38:28;95527.22;;;15.79;26.22
21826;BME280;11075;47.944;11.776;2022-10-29T02:40:55;95546.13;;;16.23;25.81
21826;BME280;11075;47.944;11.776;2022-10-29T02:46:12;95564.72;;;17.10;24.20
21826;BME280;11075;47.944;11.776;2022-10-29T02:48:40;95554.13;;;16.85;24.51
21826;BME280;11075;47.944;11.776;2022-10-29T02:51:06;95542.53;;;16.18;25.21
21826;BME280;11075;47.944;11.776;2022-10-29T02:53:33;95466.38;;;12.49;30.39
21826;BME280;11075;47.944;11.776;2022-10-29T02:56:00;95523.91;;;15.26;26.84
21826;BME280;11075;47.944;11.776;2022-10-29T02:58:28;95549.66;;;16.07;25.02
21826;BME280;11075;47.944;11.776;2022-10-29T03:00:55;95518.19;;;15.15;26.52
21826;BME280;11075;47.944;11.776;2022-10-29T03:03:22;95547.25;;;16.21;25.59
21826;BME280;11075;47.944;11.776;2022-10-29T03:05:50;95520.50;;;15.29;26.40
21826;BME280;11075;47.944;11.776;2022-10-29T03:08:17;95527.03;;;15.56;26.53
21826;BME280;11075;47.944;11.776;2022-10-29T03:10:44;95528.44;;;15.66;26.05
21826;BME280;11075;47.944;11.776;2022-10-29T03:13:11;95511.69;;;14.76;26.99
21826;BME280;11075;47.944;11.776;2022-10-29T03:15:42;95456.59;;;12.77;30.18
21826;BME280;11075;47.944;11.776;2022-10-29T03:18:11;95461.25;;;12.35;29.88
21826;BME280;11075;47.944;11.776;2022-10-29T03:20:39;95472.91;;;13.01;28.97
21826;BME280;11075;47.944;11.776;2022-10-29T03:23:05;95502.03;;;14.91;27.22
21826;BME280;11075;47.944;11.776;2022-10-29T03:25:32;95505.81;;;14.74;27.02
21826;BME280;11075;47.944;11.776;2022-10-29T03:27:59;95505.38;;;14.20;27.89
21826;BME280;11075;47.944;11.776;2022-10-29T03:30:26;95510.41;;;15.14;26.63
21826;BME280;11075;47.944;11.776;2022-10-29T03:32:53;95526.84;;;15.65;25.66
21826;BME280;11075;47.944;11.776;2022-10-29T03:35:21;95542.81;;;16.13;24.97
21826;BME280;11075;47.944;11.776;2022-10-29T03:37:51;95529.53;;;15.33;26.48
21826;BME280;11075;47.944;11.776;2022-10-29T03:40:19;95547.88;;;15.83;25.69
21826;BME280;11075;47.944;11.776;2022-10-29T03:42:45;95531.97;;;15.38;25.98
21826;BME280;11075;47.944;11.776;2022-10-29T03:45:12;95511.78;;;13.42;28.32
21826;BME280;11075;47.944;11.776;2022-10-29T03:47:40;95540.66;;;14.60;26.56
21826;BME280;11075;47.944;11.776;2022-10-29T03:50:07;95541.41;;;14.85;26.36
21826;BME280;11075;47.944;11.776;2022-10-29T03:52:34;95495.72;;;12.92;28.85
21826;BME280;11075;47.944;11.776;2022-10-29T03:55:02;95487.38;;;12.22;29.52
21826;BME280;11075;47.944;11.776;2022-10-29T03:57:29;95522.75;;;14.31;26.91
21826;BME280;11075;47.944;11.776;2022-10-29T03:59:55;95520.41;;;13.93;28.16
21826;BME280;11075;47.944;11.776;2022-10-29T04:02:23;95526.25;;;14.19;27.72
21826;BME280;11075;47.944;11.776;2022-10-29T04:04:50;95544.16;;;15.01;26.55
21826;BME280;11075;47.944;11.776;2022-10-29T04:07:17;95550.28;;;14.98;26.71
21826;BME280;11075;47.944;11.776;2022-10-29T04:09:44;95570.16;;;15.73;25.15
21826;BME280;11075;47.944;11.776;2022-10-29T04:12:11;95581.72;;;15.70;25.78
21826;BME280;11075;47.944;11.776;2022-10-29T04:14:37;95562.06;;;14.89;26.59
21826;BME280;11075;47.944;11.776;2022-10-29T04:17:11;95523.94;;;12.70;29.21
21826;BME280;11075;47.944;11.776;2022-10-29T04:19:39;95517.19;;;12.76;29.22
21826;BME280;11075;47.944;11.776;2022-10-29T04:22:06;95556.06;;;14.96;26.28
21826;BME280;11075;47.944;11.776;2022-10-29T04:24:52;95549.09;;;14.83;26.54
21826;BME280;11075;47.944;11.776;2022-10-29T04:27:39;95536.81;;;14.61;26.47
21826;BME280;11075;47.944;11.776;2022-10-29T04:30:26;95543.88;;;14.90;26.29
21826;BME280;11075;47.944;11.776;2022-10-29T04:32:57;95520.91;;;13.50;27.92
21826;BME280;11075;47.944;11.776;2022-10-29T04:35:26;95537.66;;;14.77;26.11
21826;BME280;11075;47.944;11.776;2022-10-29T04:37:54;95532.88;;;15.42;26.16
21826;BME280;11075;47.944;11.776;2022-10-29T04:40:22;95512.03;;;14.10;27.30
21826;BME280;11075;47.944;11.776;2022-10-29T04:42:49;95504.38;;;13.88;28.01
21826;BME280;11075;47.944;11.776;2022-10-29T04:45:17;95505.50;;;14.23;28.06
21826;BME280;11075;47.944;11.776;2022-10-29T04:47:44;95501.00;;;14.55;27.88
21826;BME280;11075;47.944;11.776;2022-10-29T04:50:11;95515.16;;;14.89;27.42
21826;BME280;11075;47.944;11.776;2022-10-29T04:52:39;95520.94;;;14.35;28.24
21826;BME280;11075;47.944;11.776;2022-10-29T04:55:06;95522.03;;;14.58;27.50
21826;BME280;11075;47.944;11.776;2022-10-29T04:57:33;95492.19;;;12.79;29.85
21826;BME280;11075;47.944;11.776;2022-10-29T05:00:00;95415.97;;;9.55;35.20
21826;BME280;11075;47.944;11.776;2022-10-29T05:02:27;95482.63;;;12.19;31.12
21826;BME280;11075;47.944;11.776;2022-10-29T05:04:55;95531.25;;;14.70;27.56
21826;BME280;11075;47.944;11.776;2022-10-29T05:07:21;95512.38;;;14.21;28.36
21826;BME280;11075;47.944;11.776;2022-10-29T05:09:48;95486.53;;;12.30;30.72
21826;BME280;11075;47.944;11.776;2022-10-29T05:12:15;95535.34;;;15.04;27.03
21826;BME280;11075;47.944;11.776;2022-10-29T05:14:42;95533.13;;;14.81;27.27
21826;BME280;11075;47.944;11.776;2022-10-29T05:17:09;95528.09;;;13.91;28.22
21826;BME280;11075;47.944;11.776;2022-10-29T05:19:36;95546.22;;;15.79;26.12
21826;BME280;11075;47.944;11.776;2022-10-29T05:22:03;95554.28;;;15.91;25.83
21826;BME280;11075;47.944;11.776;2022-10-29T05:24:30;95531.13;;;15.06;26.91
21826;BME280;11075;47.944;11.776;2022-10-29T05:26:56;95478.84;;;12.95;30.11
21826;BME280;11075;47.944;11.776;2022-10-29T05:29:23;95496.25;;;13.76;28.86
21826;BME280;11075;47.944;11.776;2022-10-29T05:31:52;95504.91;;;14.30;28.37
21826;BME280;11075;47.944;11.776;2022-10-29T05:34:19;95508.22;;;14.63;27.58
21826;BME280;11075;47.944;11.776;2022-10-29T05:36:46;95521.63;;;15.28;26.65
21826;BME280;11075;47.944;11.776;2022-10-29T05:39:14;95520.75;;;15.24;27.06
21826;BME280;11075;47.944;11.776;2022-10-29T05:41:41;95516.81;;;15.37;26.99
21826;BME280;11075;47.944;11.776;2022-10-29T05:44:08;95503.69;;;14.15;28.20
21826;BME280;11075;47.944;11.776;2022-10-29T05:46:35;95490.31;;;13.25;29.20
21826;BME280;11075;47.944;11.776;2022-10-29T05:49:02;95532.72;;;15.67;26.29
21826;BME280;11075;47.944;11.776;2022-10-29T05:51:30;95526.00;;;15.17;26.64
21826;BME280;11075;47.944;11.776;2022-10-29T05:53:56;95525.06;;;14.97;26.52
21826;BME280;11075;47.944;11.776;2022-10-29T05:56:23;95497.34;;;13.38;29.09
21826;BME280;11075;47.944;11.776;2022-10-29T05:58:50;95541.06;;;15.89;25.88
21826;BME280;11075;47.944;11.776;2022-10-29T06:01:17;95553.06;;;16.20;24.98
21826;BME280;11075;47.944;11.776;2022-10-29T06:03:45;95537.63;;;15.45;25.93
21826;BME280;11075;47.944;11.776;2022-10-29T06:06:12;95539.03;;;15.86;25.60
21826;BME280;11075;47.944;11.776;2022-10-29T06:08:39;95490.78;;;13.27;29.36
21826;BME280;11075;47.944;11.776;2022-10-29T06:11:05;95496.94;;;13.97;28.40
21826;BME280;11075;47.944;11.776;2022-10-29T06:13:32;95521.69;;;15.91;26.08
21826;BME280;11075;47.944;11.776;2022-10-29T06:16:00;95536.16;;;16.46;25.59
21826;BME280;11075;47.944;11.776;2022-10-29T06:18:27;95517.03;;;15.76;26.83
21826;BME280;11075;47.944;11.776;2022-10-29T06:20:57;95486.28;;;14.16;28.62
21826;BME280;11075;47.944;11.776;2022-10-29T06:23:27;95511.00;;;15.82;26.56
21826;BME280;11075;47.944;11.776;2022-10-29T06:25:54;95540.38;;;16.78;25.65
21826;BME280;11075;47.944;11.776;2022-10-29T06:28:20;95539.16;;;16.76;25.47
21826;BME280;11075;47.944;11.776;2022-10-29T06:30:48;95516.47;;;15.39;27.05
21826;BME280;11075;47.944;11.776;2022-10-29T06:33:19;95519.19;;;15.23;27.33
21826;BME280;11075;47.944;11.776;2022-10-29T06:35:47;95549.66;;;16.58;25.90
21826;BME280;11075;47.944;11.776;2022-10-29T06:38:14;95535.78;;;15.65;26.63
21826;BME280;11075;47.944;11.776;2022-10-29T06:40:42;95512.94;;;14.14;28.96
21826;BME280;11075;47.944;11.776;2022-10-29T06:43:10;95544.47;;;16.53;26.21
21826;BME280;11075;47.944;11.776;2022-10-29T06:45:38;95568.09;;;16.84;25.25
21826;BME280;11075;47.944;11.776;2022-10-29T06:48:05;95551.88;;;16.37;26.45
21826;BME280;11075;47.944;11.776;2022-10-29T06:50:32;95547.72;;;15.92;26.60
21826;BME280;11075;47.944;11.776;2022-10-29T06:53:05;95518.66;;;14.49;28.79
21826;BME280;11075;47.944;11.776;2022-10-29T06:55:33;95479.03;;;13.23;30.65
21826;BME280;11075;47.944;11.776;2022-10-29T06:58:03;95475.19;;;12.79;31.24
21826;BME280;11075;47.944;11.776;2022-10-29T07:00:32;95518.81;;;14.69;28.72
21826;BME280;11075;47.944;11.776;2022-10-29T07:03:01;95480.19;;;13.34;31.00
21826;BME280;11075;47.944;11.776;2022-10-29T07:05:29;95532.03;;;15.70;28.00
21826;BME280;11075;47.944;11.776;2022-10-29T07:07:58;95550.66;;;16.69;26.65
21826;BME280;11075;47.944;11.776;2022-10-29T07:10:28;95549.31;;;16.44;26.98
21826;BME280;11075;47.944;11.776;2022-10-29T07:12:56;95579.63;;;18.23;25.00
21826;BME280;11075;47.944;11.776;2022-10-29T07:15:24;95529.56;;;15.49;27.55
21826;BME280;11075;47.944;11.776;2022-10-29T07:17:55;95562.06;;;17.13;25.66
21826;BME280;11075;47.944;11.776;2022-10-29T07:20:24;95581.75;;;17.88;24.87
21826;BME280;11075;47.944;11.776;2022-10-29T07:22:51;95568.69;;;17.74;25.56
21826;BME280;11075;47.944;11.776;2022-10-29T07:25:18;95556.97;;;16.73;26.13
21826;BME280;11075;47.944;11.776;2022-10-29T07:27:46;95555.41;;;16.92;26.24
21826;BME280;11075;47.944;11.776;2022-10-29T07:30:13;95552.56;;;16.49;26.91
21826;BME280;11075;47.944;11.776;2022-10-29T07:32:41;95579.63;;;18.00;25.05
21826;BME280;11075;47.944;11.776;2022-10-29T07:35:08;95550.09;;;16.44;27.19
21826;BME280;11075;47.944;11.776;2022-10-29T07:37:35;95556.19;;;16.92;26.59
21826;BME280;11075;47.944;11.776;2022-10-29T07:40:02;95546.03;;;16.54;27.43
21826;BME280;11075;47.944;11.776;2022-10-29T07:42:29;95531.75;;;15.59;28.20
21826;BME280;11075;47.944;11.776;2022-10-29T07:44:56;95540.22;;;16.36;27.85
21826;BME280;11075;47.944;11.776;2022-10-29T07:47:23;95519.53;;;15.37;29.01
21826;BME280;11075;47.944;11.776;2022-10-29T07:49:50;95532.38;;;16.15;27.85
21826;BME280;11075;47.944;11.776;2022-10-29T07:52:17;95522.91;;;16.44;28.60
21826;BME280;11075;47.944;11.776;2022-10-29T07:54:43;95516.72;;;15.18;29.86
21826;BME280;11075;47.944;11.776;2022-10-29T07:57:11;95545.78;;;16.59;28.13
21826;BME280;11075;47.944;11.776;2022-10-29T07:59:38;95571.97;;;18.09;26.14
21826;BME280;11075;47.944;11.776;2022-10-29T08:02:08;95548.16;;;16.61;28.07
21826;BME280;11075;47.944;11.776;2022-10-29T08:04:35;95562.63;;;17.03;27.34
21826;BME280;11075;47.944;11.776;2022-10-29T08:07:02;95507.25;;;14.84;30.74
21826;BME280;11075;47.944;11.776;2022-10-29T08:09:29;95556.84;;;17.89;27.00
21826;BME280;11075;47.944;11.776;2022-10-29T08:11:57;95535.19;;;17.12;28.23
21826;BME280;11075;47.944;11.776;2022-10-29T08:14:23;95551.75;;;18.10;27.75
21826;BME280;11075;47.944;11.776;2022-10-29T08:16:52;95572.91;;;19.00;26.52
21826;BME280;11075;47.944;11.776;2022-10-29T08:19:20;95607.50;;;22.64;23.58
21826;BME280;11075;47.944;11.776;2022-10-29T08:21:47;95601.63;;;22.55;23.09
21826;BME280;11075;47.944;11.776;2022-10-29T08:24:14;95650.53;;;26.30;20.03
21826;BME280;11075;47.944;11.776;2022-10-29T08:26:42;95592.75;;;23.45;22.66
21826;BME280;11075;47.944;11.776;2022-10-29T08:29:09;95630.22;;;25.90;20.11
21826;BME280;11075;47.944;11.776;2022-10-29T08:31:36;95620.88;;;25.80;20.00
21826;BME280;11075;47.944;11.776;2022-10-29T08:34:02;95603.53;;;26.33;20.48
21826;BME280;11075;47.944;11.776;2022-10-29T08:36:36;95575.69;;;25.40;21.44
21826;BME280;11075;47.944;11.776;2022-10-29T08:39:03;95525.91;;;21.33;25.20
21826;BME280;11075;47.944;11.776;2022-10-29T08:47:13;95522.03;;;21.77;25.07
21826;BME280;11075;47.944;11.776;2022-10-29T08:50:05;95515.09;;;19.65;26.46
21826;BME280;11075;47.944;11.776;2022-10-29T08:52:39;95491.59;;;19.20;27.63
21826;BME280;11075;47.944;11.776;2022-10-29T08:55:27;95557.13;;;23.24;23.87
21826;BME280;11075;47.944;11.776;2022-10-29T08:57:58;95548.84;;;23.31;23.80
21826;BME280;11075;47.944;11.776;2022-10-29T09:00:36;95543.16;;;22.62;23.97
21826;BME280;11075;47.944;11.776;2022-10-29T09:03:10;95479.69;;;18.98;28.56
21826;BME280;11075;47.944;11.776;2022-10-29T09:30:30;95504.72;;;22.69;25.17
21826;BME280;11075;47.944;11.776;2022-10-29T09:33:04;95516.03;;;23.62;24.51
21826;BME280;11075;47.944;11.776;2022-10-29T09:35:47;95536.34;;;23.12;23.98
21826;BME280;11075;47.944;11.776;2022-10-29T09:38:26;95524.34;;;24.10;23.70
21826;BME280;11075;47.944;11.776;2022-10-29T09:40:59;95521.94;;;24.12;23.63
21826;BME280;11075;47.944;11.776;2022-10-29T09:43:36;95518.31;;;24.26;23.76
21826;BME280;11075;47.944;11.776;2022-10-29T09:52:15;95503.94;;;24.04;23.96
21826;BME280;11075;47.944;11.776;2022-10-29T09:54:45;95515.47;;;24.36;23.22
21826;BME280;11075;47.944;11.776;2022-10-29T09:57:22;95511.09;;;23.94;24.08
21826;BME280;11075;47.944;11.776;2022-10-29T09:59:53;95507.38;;;24.60;23.19
21826;BME280;11075;47.944;11.776;2022-10-29T10:02:34;95528.06;;;26.17;22.10
21826;BME280;11075;47.944;11.776;2022-10-29T10:07:39;95549.75;;;28.29;20.05
21826;BME280;11075;47.944;11.776;2022-10-29T10:10:19;95540.78;;;28.99;20.13
21826;BME280;11075;47.944;11.776;2022-10-29T10:12:48;95554.84;;;29.34;19.46
21826;BME280;11075;47.944;11.776;2022-10-29T10:18:03;95561.00;;;28.06;19.19
21826;BME280;11075;47.944;11.776;2022-10-29T10:20:35;95568.59;;;28.96;17.94
21826;BME280;11075;47.944;11.776;2022-10-29T10:23:24;95581.78;;;28.14;18.23
21826;BME280;11075;47.944;11.776;2022-10-29T10:25:54;95544.09;;;26.02;19.83
21826;BME280;11075;47.944;11.776;2022-10-29T10:28:30;95548.44;;;28.79;18.15
21826;BME280;11075;47.944;11.776;2022-10-29T10:33:31;95553.66;;;29.06;17.92
21826;BME280;11075;47.944;11.776;2022-10-29T10:36:01;95569.22;;;29.83;16.69
21826;BME280;11075;47.944;11.776;2022-10-29T10:38:38;95568.53;;;28.83;17.28
21826;BME280;11075;47.944;11.776;2022-10-29T10:41:06;95554.84;;;29.34;17.33
21826;BME280;11075;47.944;11.776;2022-10-29T10:43:34;95575.75;;;29.51;15.83
21826;BME280;11075;47.944;11.776;2022-10-29T10:46:10;95558.22;;;29.12;17.19
21826;BME280;11075;47.944;11.776;2022-10-29T10:48:39;95543.53;;;29.28;17.68
21826;BME280;11075;47.944;11.776;2022-10-29T10:51:16;95521.88;;;27.87;18.97
21826;BME280;11075;47.944;11.776;2022-10-29T10:53:46;95539.56;;;29.55;17.18
21826;BME280;11075;47.944;11.776;2022-10-29T10:56:16;95530.66;;;28.93;17.46
21826;BME280;11075;47.944;11.776;2022-10-29T10:59:02;95538.03;;;30.52;16.48
21826;BME280;11075;47.944;11.776;2022-10-29T11:01:36;95521.78;;;31.28;16.42
21826;BME280;11075;47.944;11.776;2022-10-29T11:04:13;95496.94;;;29.48;18.19
21826;BME280;11075;47.944;11.776;2022-10-29T11:06:50;95500.69;;;29.93;17.72
21826;BME280;11075;47.944;11.776;2022-10-29T11:09:29;95480.44;;;29.03;18.78
21826;BME280;11075;47.944;11.776;2022-10-29T11:14:47;95463.97;;;27.44;19.58
21826;BME280;11075;47.944;11.776;2022-10-29T11:17:28;95482.41;;;30.30;18.03
21826;BME280;11075;47.944;11.776;2022-10-29T11:20:01;95483.97;;;31.18;17.30
21826;BME280;11075;47.944;11.776;2022-10-29T11:22:53;95485.31;;;31.66;16.70
21826;BME280;11075;47.944;11.776;2022-10-29T11:25:43;95473.75;;;30.28;17.70
21826;BME280;11075;47.944;11.776;2022-10-29T11:28:25;95481.75;;;31.66;16.84
21826;BME280;11075;47.944;11.776;2022-10-29T11:31:18;95476.72;;;30.90;17.05
21826;BME280;11075;47.944;11.776;2022-10-29T11:34:11;95484.00;;;30.74;16.29
21826;BME280;11075;47.944;11.776;2022-10-29T11:36:57;95460.53;;;30.75;17.45
21826;BME280;11075;47.944;11.776;2022-10-29T11:42:09;95468.19;;;33.66;15.84
21826;BME280;11075;47.944;11.776;2022-10-29T11:44:37;95490.34;;;30.53;16.24
21826;BME280;11075;47.944;11.776;2022-10-29T11:50:13;95494.16;;;32.96;15.04
21826;BME280;11075;47.944;11.776;2022-10-29T11:58:56;95451.97;;;29.41;17.04
21826;BME280;11075;47.944;11.776;2022-10-29T12:01:40;95451.72;;;30.33;16.86
21826;BME280;11075;47.944;11.776;2022-10-29T12:04:31;95463.06;;;31.76;15.99
21826;BME280;11075;47.944;11.776;2022-10-29T12:10:02;95465.31;;;31.99;14.96
21826;BME280;11075;47.944;11.776;2022-10-29T12:15:34;95434.16;;;26.99;18.02
21826;BME280;11075;47.944;11.776;2022-10-29T12:18:23;95458.84;;;32.29;14.82
21826;BME280;11075;47.944;11.776;2022-10-29T12:34:30;95417.66;;;30.42;16.38
21826;BME280;11075;47.944;11.776;2022-10-29T12:39:48;95347.56;;;27.84;20.39
21826;BME280;11075;47.944;11.776;2022-10-29T12:42:24;95367.13;;;29.78;18.76
21826;BME280;11075;47.944;11.776;2022-10-29T12:48:07;95368.94;;;30.50;18.25
21826;BME280;11075;47.944;11.776;2022-10-29T12:55:53;95356.09;;;29.27;18.22
21826;BME280;11075;47.944;11.776;2022-10-29T12:58:51;95384.84;;;31.02;17.42
21826;BME280;11075;47.944;11.776;2022-10-29T13:04:26;95377.38;;;30.90;17.30
21826;BME280;11075;47.944;11.776;2022-10-29T13:11:59;95350.91;;;27.63;19.14
21826;BME280;11075;47.944;11.776;2022-10-29T13:17:03;95373.69;;;27.83;18.77
21826;BME280;11075;47.944;11.776;2022-10-29T13:19:47;95382.97;;;30.25;17.36
21826;BME280;11075;47.944;11.776;2022-10-29T13:24:42;95392.84;;;31.22;16.62
21826;BME280;11075;47.944;11.776;2022-10-29T13:29:48;95358.31;;;28.94;18.10
21826;BME280;11075;47.944;11.776;2022-10-29T13:32:33;95369.81;;;28.67;17.90
21826;BME280;11075;47.944;11.776;2022-10-29T13:38:14;95369.38;;;28.81;17.75
21826;BME280;11075;47.944;11.776;2022-10-29T13:41:00;95355.63;;;28.36;18.06
21826;BME280;11075;47.944;11.776;2022-10-29T13:43:32;95346.50;;;28.52;18.71
21826;BME280;11075;47.944;11.776;2022-10-29T13:46:25;95352.59;;;29.74;17.67
21826;BME280;11075;47.944;11.776;2022-10-29T13:48:55;95350.88;;;29.04;18.09
21826;BME280;11075;47.944;11.776;2022-10-29T13:51:29;95344.41;;;28.14;18.70
21826;BME280;11075;47.944;11.776;2022-10-29T13:54:04;95343.56;;;28.43;18.59
21826;BME280;11075;47.944;11.776;2022-10-29T13:56:40;95343.75;;;26.80;19.59
21826;BME280;11075;47.944;11.776;2022-10-29T13:59:16;95352.72;;;27.98;18.07
21826;BME280;11075;47.944;11.776;2022-10-29T14:01:55;95339.22;;;28.29;18.13
21826;BME280;11075;47.944;11.776;2022-10-29T14:04:30;95346.53;;;28.77;18.25
21826;BME280;11075;47.944;11.776;2022-10-29T14:07:03;95321.88;;;27.83;19.11
21826;BME280;11075;47.944;11.776;2022-10-29T14:09:53;95331.69;;;28.30;19.01
21826;BME280;11075;47.944;11.776;2022-10-29T14:12:26;95331.19;;;28.47;18.75
21826;BME280;11075;47.944;11.776;2022-10-29T14:15:09;95331.03;;;28.25;18.75
21826;BME280;11075;47.944;11.776;2022-10-29T14:17:36;95329.53;;;28.08;18.99
21826;BME280;11075;47.944;11.776;2022-10-29T14:20:03;95299.09;;;25.66;21.36
21826;BME280;11075;47.944;11.776;2022-10-29T14:22:35;95325.34;;;27.26;19.32
21826;BME280;11075;47.944;11.776;2022-10-29T14:25:24;95316.84;;;27.49;19.71
21826;BME280;11075;47.944;11.776;2022-10-29T14:28:15;95323.78;;;26.73;19.90
21826;BME280;11075;47.944;11.776;2022-10-29T14:30:46;95321.59;;;26.64;20.12
21826;BME280;11075;47.944;11.776;2022-10-29T14:33:33;95302.50;;;25.74;21.19
21826;BME280;11075;47.944;11.776;2022-10-29T14:39:44;95305.00;;;26.08;21.05
21826;BME280;11075;47.944;11.776;2022-10-29T14:42:14;95315.41;;;25.57;20.92
21826;BME280;11075;47.944;11.776;2022-10-29T14:47:27;95304.56;;;26.29;20.93
21826;BME280;11075;47.944;11.776;2022-10-29T14:50:02;95309.50;;;27.10;20.63
21826;BME280;11075;47.944;11.776;2022-10-29T14:52:39;95308.88;;;26.86;20.93
21826;BME280;11075;47.944;11.776;2022-10-29T14:55:16;95314.50;;;27.48;20.06
21826;BME280;11075;47.944;11.776;2022-10-29T14:58:29;95305.00;;;26.08;21.26
21826;BME280;11075;47.944;11.776;2022-10-29T15:00:38;95294.25;;;25.94;21.68
21826;BME280;11075;47.944;11.776;2022-10-29T15:03:19;95284.28;;;24.29;23.38
21826;BME280;11075;47.944;11.776;2022-10-29T15:05:47;95286.66;;;25.12;23.03
21826;BME280;11075;47.944;11.776;2022-10-29T15:08:22;95274.56;;;24.21;23.91
21826;BME280;11075;47.944;11.776;2022-10-29T15:10:56;95280.63;;;24.93;23.27
21826;BME280;11075;47.944;11.776;2022-10-29T15:13:30;95285.72;;;25.65;22.72
21826;BME280;11075;47.944;11.776;2022-10-29T15:16:04;95284.81;;;25.01;23.39
21826;BME280;11075;47.944;11.776;2022-10-29T15:18:33;95293.38;;;25.77;22.68
21826;BME280;11075;47.944;11.776;2022-10-29T15:21:03;95272.88;;;24.85;23.59
21826;BME280;11075;47.944;11.776;2022-10-29T15:23:42;95278.91;;;25.50;23.23
21826;BME280;11075;47.944;11.776;2022-10-29T15:26:15;95276.19;;;24.45;24.34
21826;BME280;11075;47.944;11.776;2022-10-29T15:28:53;95296.28;;;25.47;23.22
21826;BME280;11075;47.944;11.776;2022-10-29T15:31:42;95291.69;;;25.17;23.65
21826;BME280;11075;47.944;11.776;2022-10-29T15:34:16;95292.03;;;24.68;23.61
21826;BME280;11075;47.944;11.776;2022-10-29T15:36:52;95271.84;;;23.46;25.21
21826;BME280;11075;47.944;11.776;2022-10-29T15:39:28;95301.63;;;24.84;23.34
21826;BME280;11075;47.944;11.776;2022-10-29T15:42:24;95283.00;;;23.32;24.77
21826;BME280;11075;47.944;11.776;2022-10-29T15:47:34;95322.53;;;25.31;22.31